Conway, SC

2:35 AM EDT on March 30, 2015 (GMT -0400)
Marion County | | Change Station
CLOSE
Current Station
Airport
Location: Marion,
Elevation: 92 ft
Nearby Weather Stations
Active Advisory: Frost Advisory Active Notice: Record Report

Elev 92 ft 34.18 °N, 79.33 °W | Updated 20 minutes ago

Clear
Clear
37 °F
Feels Like 37 °F
N
0
Wind Variable Wind from North

Today
High -- | Low -- °F
--% Chance of Precip.
Yesterday
High -- | Low -- °F
Precip. -- in
7:06 AM 7:35 PM
Waxing Gibbous, 77% visible
Pressure 30.26 in
Visibility 10.0 miles
Clouds Clear
Dew Point 32 °F
Humidity 81%
Rainfall 0.00 in
Snow Depth Not available.
UV 0 out of 12
Pollen 8.80 out of 12
Air Quality Not available.
Flu Activity Not available.
METAR KMAO 300615Z AUTO 00000KT 10SM CLR 03/00 A3026 RMK AO2

More Conditions Fewer Conditions

Pressure 30.26 in
Visibility 10.0 miles
Clouds Clear
Dew Point 32 °F
Humidity 81%
Rainfall 0.00 in
Snow Depth Not available.
UV 0 out of 12
Pollen 8.80 out of 12
Air Quality Not available.
Flu Activity Not available.
METAR KMAO 300615Z AUTO 00000KT 10SM CLR 03/00 A3026 RMK AO2

More Conditions Fewer Conditions

10-Day Weather Forecast

Almanac

Astronomy

Mar. 30, 2015 Rise Set
Actual Time
Civil Twilight
Nautical Twilight
Astronomical Twilight
Moon
Length of Visible Light
Length of Day
Tomorrow will be .
, % of the Moon is Illuminated

Today's Extremes

State Highs State Lows

Community

WunderPhotos

Upload Photos

1,809,439 photos uploaded!

WunderBlogs® & News

Nearby

Air Quality

  Air Quality AQ Index Pollutant
Not available.

Snow Depth

Station Depth Elevation

Earthquake Activity

City Distance Mag. Time & Date
Minimum magnitude displayed is 2.5.

Coastal Water Temperatures

Place Temperature

Stations

Nearby Weather Stations

Station Location Temp. Windchill Dew Point Humidity Wind Precip. Elev Updated Type
                   
Frost Advisory
Statement as of 6:47 PM EDT on March 29, 2015

... Frost advisory remains in effect from 10 PM this evening to
6 am EDT Monday...

* temperatures... in the mid 30s.

* Impacts... sensitive crops and vegetation will be susceptible to
frost late this evening and into the pre-dawn hours. Take the
necessary precautions to prevent damage to outdoor plants and
crops.

Precautionary/preparedness actions...

A frost advisory means that frost is expected. Sensitive outdoor
plants and vegetation may be killed if left unattended and
uncovered.



27